Time;durP1;ratioP1;P1;durP2;ratioP2;P2;SDS_P1;SDS_P2;PMS_P1;PMS_P2;Temp;Humidity;BMP_temperature;BMP_pressure;BME280_temperature;BME280_humidity;BME280_pressure;Samples;Min_cycle;Max_cycle;Signal;HPM_P1;HPM_P2
2021/09/04 00:01:58;;;;;;;7.70;4.50;;;;;;;15.15;63.40;100050.73;1840189;76;21663;-75
2021/09/04 00:04:25;;;;;;;5.63;3.47;;;;;;;15.13;63.85;100048.09;1840496;76;21809;-75
2021/09/04 00:06:53;;;;;;;7.60;3.60;;;;;;;15.10;64.42;100048.69;1838089;77;21668;-75
2021/09/04 00:09:21;;;;;;;6.47;3.87;;;;;;;15.08;64.42;100053.59;1838054;77;21722;-76
2021/09/04 00:11:51;;;;;;;6.17;3.60;;;;;;;15.05;64.44;100057.66;1835917;76;21800;-76
2021/09/04 00:14:18;;;;;;;6.17;4.13;;;;;;;15.03;64.83;100061.73;1831899;77;21719;-75
2021/09/04 00:16:46;;;;;;;6.10;3.83;;;;;;;15.00;65.10;100060.44;1827369;77;21720;-75
2021/09/04 00:19:16;;;;;;;8.83;3.90;;;;;;;14.99;65.32;100054.27;1837103;77;21681;-75
2021/09/04 00:21:44;;;;;;;8.10;3.80;;;;;;;14.99;65.49;100060.20;1839405;77;21689;-75
2021/09/04 00:24:10;;;;;;;7.83;4.20;;;;;;;14.97;65.77;100065.06;1842221;77;21700;-75
2021/09/04 00:26:38;;;;;;;6.43;3.67;;;;;;;14.92;65.88;100063.83;1833513;77;21700;-75
2021/09/04 00:29:05;;;;;;;7.83;4.00;;;;;;;14.92;65.88;100063.83;1841703;77;22234;-76
2021/09/04 00:31:32;;;;;;;6.17;3.63;;;;;;;14.88;66.12;100058.81;1837776;77;22179;-75
2021/09/04 00:33:58;;;;;;;6.60;3.90;;;;;;;14.85;66.27;100065.56;1849867;76;22332;-77
2021/09/04 00:36:25;;;;;;;7.43;3.80;;;;;;;14.80;66.45;100057.58;1846717;77;21788;-76
2021/09/04 00:38:52;;;;;;;7.97;4.43;;;;;;;14.77;66.58;100053.63;1834551;76;22253;-76
2021/09/04 00:41:22;;;;;;;5.87;3.73;;;;;;;14.68;67.15;100054.05;1835511;77;21842;-76
2021/09/04 00:43:48;;;;;;;5.53;3.60;;;;;;;14.64;67.56;100053.05;1822976;77;21738;-77
2021/09/04 00:46:15;;;;;;;8.03;4.23;;;;;;;14.64;67.56;100053.05;1830772;77;22390;-77
2021/09/04 00:48:42;;;;;;;6.93;4.00;;;;;;;14.60;67.95;100056.61;1829995;77;21539;-77
2021/09/04 00:51:09;;;;;;;7.10;4.53;;;;;;;14.60;68.19;100052.03;1832769;77;21540;-77
2021/09/04 00:53:36;;;;;;;6.50;3.90;;;;;;;14.59;69.25;100059.85;1843302;77;21507;-78
2021/09/04 00:56:05;;;;;;;7.00;4.33;;;;;;;14.59;69.25;100059.85;1842407;77;22073;-77
2021/09/04 00:58:33;;;;;;;6.13;3.80;;;;;;;14.58;69.18;100054.75;1837512;77;21575;-80
2021/09/04 01:01:00;;;;;;;6.97;4.10;;;;;;;14.58;69.75;100050.20;1839855;77;22082;-77
2021/09/04 01:03:28;;;;;;;6.47;3.63;;;;;;;14.57;69.99;100054.52;1819792;77;21484;-79
2021/09/04 01:05:55;;;;;;;8.17;4.60;;;;;;;14.54;70.34;100050.52;1839724;76;21562;-77
2021/09/04 01:08:22;;;;;;;6.40;4.17;;;;;;;14.50;70.86;100052.18;1823321;77;21586;-78
2021/09/04 01:10:52;;;;;;;7.73;4.57;;;;;;;14.46;71.12;100056.00;1828147;77;21542;-76
2021/09/04 01:13:21;;;;;;;7.33;4.73;;;;;;;14.42;71.54;100049.63;1822217;77;21547;-78
2021/09/04 01:15:48;;;;;;;8.03;4.57;;;;;;;14.38;71.77;100055.34;1835436;77;21483;-77
2021/09/04 01:18:15;;;;;;;7.60;4.27;;;;;;;14.35;72.16;100057.28;1844482;75;21396;-77
2021/09/04 01:20:44;;;;;;;6.57;4.07;;;;;;;14.28;72.48;100053.63;1841903;76;21513;-77
2021/09/04 01:23:10;;;;;;;7.47;4.30;;;;;;;14.22;72.97;100060.72;1842957;77;21517;-78
2021/09/04 01:25:37;;;;;;;7.30;4.77;;;;;;;14.22;72.97;100060.72;1830774;77;21589;-77
2021/09/04 01:28:05;;;;;;;6.80;4.67;;;;;;;14.16;73.28;100057.86;1826034;77;21596;-78
2021/09/04 01:30:31;;;;;;;9.70;4.83;;;;;;;14.09;73.72;100063.60;1826975;77;21661;-78
2021/09/04 01:32:58;;;;;;;6.17;4.10;;;;;;;14.11;74.57;100066.77;1765415;77;21538;-79
2021/09/04 01:35:25;;;;;;;6.80;4.23;;;;;;;14.11;74.57;100066.77;1845430;76;22012;-78
2021/09/04 01:37:53;;;;;;;7.87;4.90;;;;;;;14.06;74.46;100060.16;1826906;77;21393;-78
2021/09/04 01:40:20;;;;;;;8.70;4.53;;;;;;;13.99;74.85;100075.29;1818432;77;21464;-78
2021/09/04 01:42:48;;;;;;;6.33;4.43;;;;;;;13.99;74.85;100075.29;1839280;77;21536;-77
2021/09/04 01:45:15;;;;;;;8.20;5.33;;;;;;;13.97;75.39;100084.17;1820599;77;21452;-78
2021/09/04 01:47:42;;;;;;;8.43;5.07;;;;;;;13.97;75.39;100084.17;1832167;77;22183;-78
2021/09/04 01:50:09;;;;;;;7.33;4.90;;;;;;;13.96;75.94;100087.95;1815241;77;21497;-78
2021/09/04 01:52:37;;;;;;;7.73;5.00;;;;;;;13.90;76.25;100096.38;1805696;78;21432;-77
2021/09/04 01:55:12;;;;;;;8.57;4.97;;;;;;;13.88;76.47;100089.93;1820972;76;21503;-78
2021/09/04 01:57:38;;;;;;;6.97;4.50;;;;;;;13.87;76.72;100088.89;1832402;78;21537;-77
2021/09/04 02:00:07;;;;;;;7.80;5.50;;;;;;;13.83;77.63;100083.31;1829358;76;21519;-79
2021/09/04 02:02:35;;;;;;;8.60;4.83;;;;;;;13.83;77.63;100083.31;1828843;77;21833;-78
2021/09/04 02:05:03;;;;;;;8.53;5.00;;;;;;;13.79;77.52;100075.59;1822940;77;21359;-78
2021/09/04 02:07:30;;;;;;;7.90;4.97;;;;;;;13.76;77.70;100078.30;1811601;77;21246;-78
2021/09/04 02:09:56;;;;;;;9.00;5.57;;;;;;;13.75;77.86;100084.73;1823886;78;21227;-78
2021/09/04 02:12:23;;;;;;;9.83;5.70;;;;;;;13.71;78.15;100089.09;1833650;78;21743;-76
2021/09/04 02:14:50;;;;;;;8.57;5.60;;;;;;;13.69;78.32;100083.75;1828209;77;21208;-78
2021/09/04 02:17:19;;;;;;;7.63;5.17;;;;;;;13.68;78.46;100088.88;1813684;79;21777;-77
2021/09/04 02:19:47;;;;;;;6.97;5.00;;;;;;;13.67;78.81;100087.28;1822717;76;21321;-78
2021/09/04 02:22:15;;;;;;;9.70;5.90;;;;;;;13.65;79.23;100094.27;1832688;77;21163;-77
2021/09/04 02:24:41;;;;;;;10.90;5.90;;;;;;;13.63;79.37;100091.09;1833295;77;21232;-77
2021/09/04 02:27:09;;;;;;;9.37;5.53;;;;;;;13.64;79.55;100099.39;1837405;78;21251;-79
2021/09/04 02:29:37;;;;;;;9.50;5.63;;;;;;;13.65;79.66;100096.95;1819210;77;21321;-77
2021/09/04 02:32:04;;;;;;;7.73;5.20;;;;;;;13.67;79.76;100102.84;1820480;76;21445;-78
2021/09/04 02:34:30;;;;;;;7.50;5.10;;;;;;;13.68;79.85;100100.95;1832488;78;21346;-77
2021/09/04 02:36:59;;;;;;;7.90;5.37;;;;;;;13.67;80.03;100108.21;1816860;76;21547;-78
2021/09/04 02:39:27;;;;;;;11.40;5.90;;;;;;;13.67;80.13;100108.21;1801990;79;21244;-77
2021/09/04 02:41:54;;;;;;;9.00;5.40;;;;;;;13.67;80.15;100100.70;1822693;76;21339;-81
2021/09/04 02:44:21;;;;;;;7.77;5.10;;;;;;;13.65;80.35;100105.00;1832831;78;21246;-79
2021/09/04 02:46:48;;;;;;;9.77;6.27;;;;;;;13.63;80.37;100103.72;1838725;77;21236;-76
2021/09/04 02:49:17;;;;;;;9.63;5.73;;;;;;;13.60;80.41;100109.11;1836427;76;21202;-78
2021/09/04 02:51:44;;;;;;;8.17;5.67;;;;;;;13.59;80.51;100108.31;1832113;76;21333;-77
2021/09/04 02:54:11;;;;;;;10.00;6.10;;;;;;;13.59;80.60;100101.61;1834452;76;21642;-80
2021/09/04 02:56:40;;;;;;;9.67;5.77;;;;;;;13.59;80.58;100100.27;1840966;78;21244;-77
2021/09/04 02:59:07;;;;;;;8.17;5.77;;;;;;;13.63;80.50;100101.83;1837740;78;21741;-77
2021/09/04 03:01:34;;;;;;;8.33;5.67;;;;;;;13.61;80.42;100100.76;1828182;78;21668;-77
2021/09/04 03:04:03;;;;;;;8.73;5.43;;;;;;;13.62;80.36;100104.23;1834439;78;21488;-77
2021/09/04 03:06:30;;;;;;;9.03;5.87;;;;;;;13.63;80.27;100105.85;1838207;78;21173;-77
2021/09/04 03:08:58;;;;;;;10.93;6.07;;;;;;;13.58;80.25;100108.04;1839267;78;21844;-77
2021/09/04 03:11:27;;;;;;;9.03;6.07;;;;;;;13.56;80.23;100113.46;1834586;77;21860;-78
2021/09/04 03:13:55;;;;;;;9.23;5.83;;;;;;;13.54;80.24;100114.28;1836696;77;21693;-79
2021/09/04 03:16:23;;;;;;;8.50;5.93;;;;;;;13.49;80.77;100106.28;1835819;78;21710;-79
2021/09/04 03:18:50;;;;;;;9.23;5.63;;;;;;;13.49;80.77;100106.28;1823479;77;21747;-77
2021/09/04 03:21:18;;;;;;;7.87;5.20;;;;;;;13.45;80.42;100114.11;1824739;77;21171;-77
2021/09/04 03:23:45;;;;;;;9.13;5.23;;;;;;;13.42;80.45;100109.86;1825818;76;21489;-76
2021/09/04 03:26:11;;;;;;;9.20;5.57;;;;;;;13.38;80.52;100117.68;1839646;76;21468;-77
2021/09/04 03:28:38;;;;;;;8.17;5.30;;;;;;;13.37;80.53;100124.94;1828555;77;21040;-78
2021/09/04 03:31:05;;;;;;;7.83;5.00;;;;;;;13.34;80.52;100140.26;1839580;78;21181;-79
2021/09/04 03:33:31;;;;;;;7.10;4.50;;;;;;;13.34;80.43;100140.26;1836916;77;21250;-78
2021/09/04 03:35:58;;;;;;;7.00;4.37;;;;;;;13.35;80.33;100143.73;1841822;78;21269;-77
2021/09/04 03:38:26;;;;;;;7.00;4.13;;;;;;;13.36;80.12;100151.52;1814732;77;21684;-78
2021/09/04 03:40:52;;;;;;;6.37;4.20;;;;;;;13.39;79.99;100155.48;1824786;76;21261;-77
2021/09/04 03:43:19;;;;;;;6.83;4.40;;;;;;;13.41;79.81;100165.95;1826882;77;21241;-78
2021/09/04 03:45:47;;;;;;;5.90;3.60;;;;;;;13.42;79.58;100172.35;1837779;78;21170;-77
2021/09/04 03:48:13;;;;;;;6.37;3.80;;;;;;;13.42;79.29;100172.90;1831242;76;21204;-78
2021/09/04 03:50:42;;;;;;;5.63;3.00;;;;;;;13.41;79.08;100180.70;1818788;78;21534;-78
2021/09/04 03:53:10;;;;;;;6.23;3.60;;;;;;;13.42;78.94;100180.95;1819542;77;21218;-78
2021/09/04 03:55:39;;;;;;;5.90;2.63;;;;;;;13.41;78.71;100184.73;1833703;78;21294;-80
2021/09/04 03:58:07;;;;;;;6.57;2.90;;;;;;;13.40;78.51;100187.95;1830407;78;21070;-78
2021/09/04 04:00:34;;;;;;;6.10;3.00;;;;;;;13.41;78.29;100188.75;1840193;78;21260;-78
2021/09/04 04:03:01;;;;;;;5.00;2.50;;;;;;;13.43;78.18;100191.41;1835551;76;21462;-78
2021/09/04 04:05:30;;;;;;;4.90;2.40;;;;;;;13.44;78.05;100198.91;1822048;76;21689;-78
2021/09/04 04:08:00;;;;;;;4.33;2.67;;;;;;;13.44;77.98;100204.28;1829931;78;21257;-80
2021/09/04 04:10:27;;;;;;;4.27;2.30;;;;;;;13.46;77.74;100204.77;1794075;77;21710;-78
2021/09/04 04:12:54;;;;;;;4.87;2.57;;;;;;;13.47;77.60;100210.42;1775708;79;22000;-77
2021/09/04 04:15:21;;;;;;;5.17;2.57;;;;;;;13.47;77.61;100209.87;1805673;79;21724;-77
2021/09/04 04:17:49;;;;;;;3.97;2.60;;;;;;;13.49;77.40;100216.28;1826833;76;21913;-77
2021/09/04 04:20:16;;;;;;;4.30;2.50;;;;;;;13.49;77.30;100220.31;1826338;78;21331;-76
2021/09/04 04:22:44;;;;;;;5.20;2.40;;;;;;;13.47;76.90;100230.00;1836549;77;21344;-78
2021/09/04 04:25:11;;;;;;;5.07;2.73;;;;;;;13.46;76.74;100236.45;1832129;78;21831;-77
2021/09/04 04:27:39;;;;;;;5.37;2.80;;;;;;;13.46;76.72;100236.45;1825049;76;21208;-78
2021/09/04 04:30:10;;;;;;;4.87;2.60;;;;;;;13.46;76.63;100245.02;1801792;79;21839;-77
2021/09/04 04:32:47;;;;;;;4.53;2.60;;;;;;;13.49;76.49;100248.48;1810508;79;21199;-78
2021/09/04 04:35:15;;;;;;;4.83;2.33;;;;;;;13.46;76.41;100256.58;1833410;76;21812;-78
2021/09/04 04:37:43;;;;;;;5.10;3.00;;;;;;;13.46;76.44;100253.89;1832903;78;21826;-77
2021/09/04 04:40:12;;;;;;;4.70;2.10;;;;;;;13.49;76.53;100261.37;1826685;77;22142;-76
2021/09/04 04:42:43;;;;;;;5.20;2.37;;;;;;;13.48;75.72;100265.67;1833312;76;21260;-76
2021/09/04 04:45:10;;;;;;;3.93;1.83;;;;;;;13.43;75.17;100270.55;1830613;76;21312;-76
2021/09/04 04:47:37;;;;;;;3.60;2.10;;;;;;;13.40;74.97;100271.66;1817915;78;21704;-76
2021/09/04 04:50:20;;;;;;;4.30;2.00;;;;;;;13.38;74.65;100274.61;1816131;78;21715;-77
2021/09/04 04:52:47;;;;;;;4.23;2.10;;;;;;;13.37;74.42;100272.48;1826588;78;21792;-79
2021/09/04 04:55:14;;;;;;;4.13;2.10;;;;;;;13.34;73.54;100278.41;1821999;77;21388;-78
2021/09/04 04:57:41;;;;;;;3.27;1.53;;;;;;;13.29;72.92;100278.98;1819409;76;21352;-78
2021/09/04 05:00:11;;;;;;;3.40;1.80;;;;;;;13.26;72.54;100279.02;1823767;78;22377;-78
2021/09/04 05:02:41;;;;;;;3.20;1.73;;;;;;;13.27;72.07;100282.50;1838554;77;21434;-79
2021/09/04 05:05:08;;;;;;;3.53;1.60;;;;;;;13.30;71.69;100285.97;1826087;76;21172;-78
2021/09/04 05:07:36;;;;;;;3.00;1.40;;;;;;;13.32;71.13;100284.58;1821912;78;21592;-78
2021/09/04 05:10:05;;;;;;;4.90;1.70;;;;;;;13.34;70.91;100289.13;1824126;78;21239;-77
2021/09/04 05:12:32;;;;;;;2.80;1.60;;;;;;;13.38;70.85;100290.16;1810366;78;21808;-77
2021/09/04 05:14:59;;;;;;;3.23;1.70;;;;;;;13.47;70.28;100290.91;1830770;76;21401;-77
2021/09/04 05:17:29;;;;;;;3.90;1.47;;;;;;;13.47;70.28;100290.91;1830848;78;21232;-77
2021/09/04 05:19:56;;;;;;;3.43;1.47;;;;;;;13.48;70.03;100296.52;1835577;76;21372;-76
2021/09/04 05:22:24;;;;;;;3.80;1.67;;;;;;;13.52;69.95;100293.53;1834454;78;21259;-78
2021/09/04 05:24:53;;;;;;;2.20;1.20;;;;;;;13.50;69.08;100305.90;1825244;77;21338;-80
2021/09/04 05:27:20;;;;;;;4.57;1.70;;;;;;;13.50;69.08;100305.90;1842730;76;21423;-78
2021/09/04 05:29:49;;;;;;;5.00;1.50;;;;;;;13.45;69.05;100301.11;1822896;78;21371;-78
2021/09/04 05:32:23;;;;;;;3.43;1.47;;;;;;;13.43;69.04;100303.30;1837065;77;21293;-76
2021/09/04 05:34:45;;;;;;;3.03;1.50;;;;;;;13.36;68.94;100308.44;1840172;76;21665;-79
2021/09/04 05:37:12;;;;;;;2.77;1.60;;;;;;;13.36;68.94;100308.44;1824801;77;21273;-78
2021/09/04 05:39:39;;;;;;;2.80;1.47;;;;;;;13.34;69.16;100313.27;1819607;78;21353;-79
2021/09/04 05:42:05;;;;;;;3.07;1.40;;;;;;;13.29;69.22;100323.23;1831192;77;21306;-77
2021/09/04 05:44:32;;;;;;;3.80;1.37;;;;;;;13.26;69.62;100329.98;1823537;77;22086;-78
2021/09/04 05:46:59;;;;;;;3.47;1.80;;;;;;;13.26;69.45;100329.98;1824319;77;21348;-78
2021/09/04 05:49:28;;;;;;;3.37;1.50;;;;;;;13.27;69.31;100336.94;1832311;76;21309;-82
2021/09/04 05:51:57;;;;;;;2.87;1.50;;;;;;;13.24;68.96;100340.69;1820653;77;21189;-77
2021/09/04 05:54:24;;;;;;;4.30;1.70;;;;;;;13.20;68.67;100343.68;1810088;78;21325;-79
2021/09/04 05:56:50;;;;;;;3.77;1.57;;;;;;;13.15;68.47;100352.00;1832611;77;21244;-78
2021/09/04 05:59:17;;;;;;;3.77;1.50;;;;;;;13.17;68.15;100348.27;1821222;78;21775;-77
2021/09/04 06:01:44;;;;;;;3.33;1.70;;;;;;;13.16;68.16;100347.44;1826700;76;21156;-78
2021/09/04 06:04:11;;;;;;;4.77;1.50;;;;;;;13.16;68.15;100354.14;1837027;77;21335;-79
2021/09/04 06:06:38;;;;;;;3.47;1.40;;;;;;;13.19;67.97;100353.58;1824505;77;21487;-80
2021/09/04 06:09:05;;;;;;;2.97;1.40;;;;;;;13.20;67.88;100357.09;1822671;78;21274;-79
2021/09/04 06:11:32;;;;;;;3.23;1.63;;;;;;;13.22;67.76;100353.57;1814300;78;21350;-81
2021/09/04 06:14:01;;;;;;;3.97;1.50;;;;;;;13.24;67.91;100360.30;1827109;77;21215;-80
2021/09/04 06:16:30;;;;;;;3.10;1.70;;;;;;;13.30;67.79;100359.19;1833493;77;21287;-82
2021/09/04 06:18:58;;;;;;;4.53;1.73;;;;;;;13.33;67.51;100366.67;1831056;76;21325;-80
2021/09/04 06:21:25;;;;;;;3.73;1.70;;;;;;;13.34;67.63;100372.29;1826524;77;22428;-83
2021/09/04 06:23:52;;;;;;;3.10;1.60;;;;;;;13.36;67.52;100372.82;1817909;78;21324;-82
2021/09/04 06:26:19;;;;;;;3.90;1.60;;;;;;;13.35;67.18;100378.45;1815892;77;21843;-81
2021/09/04 06:28:48;;;;;;;4.03;1.77;;;;;;;13.32;67.08;100374.44;1827278;78;21279;-80
2021/09/04 06:31:17;;;;;;;3.90;1.67;;;;;;;13.28;66.92;100389.50;1827001;78;21408;-81
2021/09/04 06:45:50;;;;;;;4.10;1.70;;;;;;;14.14;65.31;100389.83;1777459;77;22065;-73
2021/09/04 06:48:18;;;;;;;5.27;1.80;;;;;;;14.14;64.30;100392.52;1765462;80;21016;-72
2021/09/04 06:50:45;;;;;;;3.10;1.80;;;;;;;14.16;63.97;100393.05;1799078;78;21689;-73
2021/09/04 06:53:13;;;;;;;3.73;1.47;;;;;;;14.19;63.91;100389.80;1797707;78;22206;-73
2021/09/04 06:55:40;;;;;;;2.53;1.40;;;;;;;14.40;63.86;100386.88;1835955;76;22212;-71
2021/09/04 06:58:06;;;;;;;5.57;1.70;;;;;;;14.40;63.86;100386.88;1833116;77;21721;-71
2021/09/04 07:00:33;;;;;;;2.97;1.37;;;;;;;14.51;63.28;100399.13;1836607;76;21748;-71
2021/09/04 07:02:59;;;;;;;3.30;1.50;;;;;;;14.64;62.91;100393.60;1832921;77;21665;-71
2021/09/04 07:05:27;;;;;;;3.90;1.40;;;;;;;14.75;61.74;100406.64;1803075;78;21830;-70
2021/09/04 07:07:53;;;;;;;3.23;1.63;;;;;;;14.84;60.87;100410.02;1793815;79;22223;-72
2021/09/04 07:10:20;;;;;;;5.57;1.87;;;;;;;14.87;60.14;100417.52;1845997;76;21674;-72
2021/09/04 07:12:48;;;;;;;2.50;1.30;;;;;;;14.88;59.98;100425.30;1834697;76;21679;-72
2021/09/04 07:15:15;;;;;;;2.93;1.23;;;;;;;14.88;59.65;100428.55;1836861;76;21770;-72
2021/09/04 07:17:41;;;;;;;3.00;1.27;;;;;;;14.74;58.49;100429.25;1845185;77;21709;-70
2021/09/04 07:20:10;;;;;;;4.17;1.50;;;;;;;14.69;57.66;100423.92;1842331;77;21659;-70
2021/09/04 07:22:37;;;;;;;4.37;1.40;;;;;;;14.69;57.66;100423.92;1830689;76;21697;-72
2021/09/04 07:25:05;;;;;;;2.40;1.10;;;;;;;14.64;57.92;100426.69;1841512;76;21655;-70
2021/09/04 07:27:32;;;;;;;2.73;1.27;;;;;;;14.61;57.69;100435.32;1847213;76;22140;-71
2021/09/04 07:29:59;;;;;;;2.73;1.23;;;;;;;14.62;58.19;100438.80;1843486;76;21700;-72
2021/09/04 07:32:26;;;;;;;2.77;1.30;;;;;;;14.70;57.69;100440.84;1846673;76;22134;-72
2021/09/04 07:34:52;;;;;;;3.80;1.53;;;;;;;14.78;57.49;100438.88;1832862;77;21748;-71
2021/09/04 07:37:19;;;;;;;2.97;1.40;;;;;;;14.86;57.18;100440.12;1839691;76;21647;-71
2021/09/04 07:39:46;;;;;;;2.80;1.40;;;;;;;14.90;57.45;100442.48;1847500;77;21667;-71
2021/09/04 07:42:12;;;;;;;2.43;1.33;;;;;;;14.94;57.29;100439.49;1839267;77;22203;-71
2021/09/04 07:44:39;;;;;;;3.63;1.40;;;;;;;14.97;57.51;100434.86;1826304;76;22076;-71
2021/09/04 07:47:06;;;;;;;3.13;1.43;;;;;;;15.07;57.88;100441.47;1833730;76;21773;-70
2021/09/04 07:49:33;;;;;;;4.70;1.50;;;;;;;15.13;57.24;100440.29;1836686;76;21769;-70
2021/09/04 07:51:59;;;;;;;4.00;1.43;;;;;;;15.20;56.92;100439.92;1838307;76;22739;-71
2021/09/04 07:54:26;;;;;;;3.50;1.57;;;;;;;15.29;56.51;100442.78;1838076;76;21643;-71
2021/09/04 07:56:53;;;;;;;5.80;1.57;;;;;;;15.27;56.43;100463.27;1839678;76;21701;-71
2021/09/04 07:59:21;;;;;;;4.27;1.23;;;;;;;15.27;55.47;100453.84;1831008;77;21627;-71
2021/09/04 08:01:50;;;;;;;3.50;1.50;;;;;;;15.31;54.20;100452.16;1843164;77;21682;-71
2021/09/04 08:04:17;;;;;;;3.70;1.20;;;;;;;15.45;54.12;100457.61;1829953;76;21644;-71
2021/09/04 08:06:45;;;;;;;2.70;1.30;;;;;;;15.60;53.25;100429.67;1796652;78;21738;-71
2021/09/04 08:09:13;;;;;;;3.27;1.27;;;;;;;15.68;53.25;100443.28;1799536;78;21058;-71
2021/09/04 08:11:40;;;;;;;2.77;1.20;;;;;;;15.79;53.59;100441.77;1754625;79;21081;-72
2021/09/04 08:14:07;;;;;;;3.63;1.50;;;;;;;15.89;52.51;100445.64;1798548;78;22325;-70
2021/09/04 08:16:36;;;;;;;2.63;1.40;;;;;;;15.85;52.10;100445.44;1793051;79;21713;-72
2021/09/04 08:19:04;;;;;;;3.50;1.23;;;;;;;15.78;51.90;100445.02;1794423;78;21708;-71
2021/09/04 08:21:31;;;;;;;4.00;1.20;;;;;;;15.72;50.56;100440.80;1801057;78;21753;-71
2021/09/04 08:23:58;;;;;;;3.07;1.10;;;;;;;15.76;50.89;100441.02;1806217;78;21965;-71
2021/09/04 08:26:25;;;;;;;4.97;1.07;;;;;;;15.85;51.02;100431.97;1796209;78;21201;-72
2021/09/04 08:28:52;;;;;;;3.43;1.67;;;;;;;15.97;50.63;100442.28;1845319;76;21749;-71
2021/09/04 08:31:20;;;;;;;2.67;1.10;;;;;;;16.08;48.98;100436.16;1843046;76;21015;-71
2021/09/04 08:33:47;;;;;;;3.13;1.00;;;;;;;16.08;48.98;100436.16;1840744;77;22151;-71
2021/09/04 08:36:13;;;;;;;3.07;1.00;;;;;;;16.18;48.15;100440.81;1834339;76;21347;-72
2021/09/04 08:38:40;;;;;;;3.77;1.20;;;;;;;16.32;47.09;100430.60;1842156;76;21070;-72
2021/09/04 08:41:07;;;;;;;3.77;1.20;;;;;;;16.34;46.61;100439.99;1844969;76;21092;-71
2021/09/04 08:43:35;;;;;;;3.00;1.07;;;;;;;16.33;47.53;100434.36;1838702;76;21498;-72
2021/09/04 08:46:02;;;;;;;2.97;1.10;;;;;;;16.46;46.28;100431.43;1842644;76;21191;-71
2021/09/04 08:48:28;;;;;;;4.17;0.93;;;;;;;16.58;44.66;100439.00;1837730;76;21070;-71
2021/09/04 08:50:55;;;;;;;5.07;1.17;;;;;;;16.59;44.94;100432.53;1833138;76;21449;-71
2021/09/04 08:53:23;;;;;;;2.67;1.13;;;;;;;16.59;45.45;100447.36;1837509;76;21501;-71
2021/09/04 08:55:50;;;;;;;2.80;1.00;;;;;;;16.51;44.85;100434.02;1827355;76;21520;-71
2021/09/04 08:58:16;;;;;;;3.23;1.27;;;;;;;16.42;45.49;100433.13;1839941;76;21042;-71
2021/09/04 09:00:43;;;;;;;2.13;0.90;;;;;;;16.32;45.28;100431.95;1833800;77;21066;-72
2021/09/04 09:03:25;;;;;;;4.67;1.30;;;;;;;16.22;45.74;100436.19;1835677;76;21572;-72
2021/09/04 09:05:54;;;;;;;2.92;1.10;;;;;;;16.18;45.78;100430.04;1824460;77;22346;-71
2021/09/04 09:08:23;;;;;;;5.17;1.30;;;;;;;16.33;46.69;100426.83;1824203;76;21110;-71
2021/09/04 09:10:52;;;;;;;2.13;1.10;;;;;;;16.61;46.14;100425.72;1841562;76;20948;-71
2021/09/04 09:13:21;;;;;;;3.60;1.30;;;;;;;16.84;45.57;100426.63;1829500;77;21015;-70
2021/09/04 09:15:50;;;;;;;3.20;1.50;;;;;;;17.01;44.55;100431.42;1841288;76;20972;-72
2021/09/04 09:18:19;;;;;;;4.20;1.43;;;;;;;16.99;44.24;100437.66;1830389;76;21065;-73
2021/09/04 09:21:01;;;;;;;4.23;1.27;;;;;;;16.85;44.22;100452.52;1832042;76;21053;-71
2021/09/04 09:23:28;;;;;;;3.30;1.10;;;;;;;16.61;44.38;100455.94;1832995;77;20935;-72
2021/09/04 09:25:54;;;;;;;5.63;1.17;;;;;;;16.39;44.92;100461.48;1838938;76;20976;-71
2021/09/04 09:28:23;;;;;;;4.00;1.13;;;;;;;16.23;45.67;100462.05;1844787;77;21399;-72
2021/09/04 09:30:56;;;;;;;3.03;1.10;;;;;;;16.12;46.62;100468.15;1850529;76;21272;-72
2021/09/04 09:33:25;;;;;;;4.13;1.27;;;;;;;16.02;46.80;100463.73;1835567;76;20935;-72
2021/09/04 09:35:55;;;;;;;3.27;1.07;;;;;;;16.04;46.04;100462.91;1840372;77;20999;-71
2021/09/04 09:38:26;;;;;;;3.07;1.17;;;;;;;16.05;45.99;100460.45;1841445;76;20987;-71
2021/09/04 09:40:55;;;;;;;2.33;1.00;;;;;;;16.09;46.29;100464.17;1841144;76;21026;-71
2021/09/04 09:43:29;;;;;;;5.50;1.40;;;;;;;16.18;46.61;100467.77;1838689;76;21093;-71
2021/09/04 09:45:58;;;;;;;5.20;1.77;;;;;;;16.35;46.43;100473.13;1860398;76;20950;-74
2021/09/04 09:48:27;;;;;;;2.67;1.10;;;;;;;16.55;46.44;100474.66;1832785;76;21050;-72
2021/09/04 09:50:57;;;;;;;2.23;1.07;;;;;;;16.78;45.58;100468.84;1844448;76;21002;-73
2021/09/04 09:53:25;;;;;;;2.23;1.00;;;;;;;16.97;45.13;100461.44;1769600;79;21637;-74
2021/09/04 09:55:54;;;;;;;3.27;1.00;;;;;;;17.18;45.12;100462.38;1782210;78;21053;-73
2021/09/04 09:58:22;;;;;;;3.03;1.23;;;;;;;17.43;43.08;100475.84;1771654;81;21054;-74
2021/09/04 10:00:51;;;;;;;3.33;1.00;;;;;;;17.45;42.17;100473.09;1790825;78;21034;-75
2021/09/04 10:03:21;;;;;;;2.57;1.00;;;;;;;17.34;41.93;100471.19;1791813;78;20979;-74
2021/09/04 10:05:48;;;;;;;3.27;1.13;;;;;;;17.17;41.59;100477.75;1759361;79;20952;-73
2021/09/04 10:08:19;;;;;;;2.43;1.00;;;;;;;17.00;41.78;100481.08;1791033;78;21012;-73
2021/09/04 10:10:48;;;;;;;2.40;1.07;;;;;;;16.86;42.31;100485.69;1783626;78;21071;-73
2021/09/04 10:13:14;;;;;;;2.13;1.10;;;;;;;16.74;42.10;100488.05;1783838;79;21050;-74
2021/09/04 10:15:48;;;;;;;2.83;1.10;;;;;;;16.72;42.76;100480.27;1758333;79;21061;-74
2021/09/04 10:18:16;;;;;;;2.93;1.27;;;;;;;16.91;43.01;100485.57;1789585;78;21062;-72
2021/09/04 10:20:45;;;;;;;3.50;1.20;;;;;;;17.13;42.35;100473.27;1801442;78;21022;-71
2021/09/04 10:23:23;;;;;;;3.77;1.10;;;;;;;17.39;41.69;100470.81;1798078;78;20987;-75
2021/09/04 10:25:50;;;;;;;2.60;1.00;;;;;;;17.63;41.79;100473.23;1779201;78;21135;-75
2021/09/04 10:28:16;;;;;;;2.30;1.10;;;;;;;17.72;40.36;100480.30;1825563;77;21045;-74
2021/09/04 10:30:45;;;;;;;2.83;1.20;;;;;;;17.55;40.66;100481.52;1840273;76;21070;-75
2021/09/04 10:33:17;;;;;;;1.67;1.00;;;;;;;17.30;40.36;100486.36;1830526;76;22072;-73
2021/09/04 10:35:56;;;;;;;2.20;1.00;;;;;;;17.03;40.93;100483.17;1834432;77;20979;-73
2021/09/04 10:38:30;;;;;;;3.93;0.97;;;;;;;16.80;41.07;100486.33;1839530;76;21070;-74
2021/09/04 10:41:22;;;;;;;1.97;0.90;;;;;;;16.67;41.57;100487.66;1768518;79;21058;-74
2021/09/04 10:43:53;;;;;;;4.22;1.02;;;;;;;16.70;41.32;100491.11;1777069;79;21130;-72
2021/09/04 10:46:20;;;;;;;1.07;0.80;;;;;;;16.87;42.20;100484.03;1776887;79;21103;-72
2021/09/04 10:49:03;;;;;;;2.30;1.00;;;;;;;17.10;41.39;100491.65;1763522;79;21074;-73
2021/09/04 10:51:50;;;;;;;2.10;0.90;;;;;;;17.32;40.74;100486.88;1775237;79;21050;-72
2021/09/04 10:54:42;;;;;;;2.13;1.13;;;;;;;17.41;40.15;100507.21;1774983;80;21114;-74
2021/09/04 10:57:17;;;;;;;2.07;0.80;;;;;;;17.24;39.07;100498.92;1769231;79;21081;-73
2021/09/04 11:00:15;;;;;;;1.93;1.00;;;;;;;17.03;39.88;100507.45;1764487;79;21160;-72
2021/09/04 11:02:53;;;;;;;2.13;0.97;;;;;;;16.94;40.21;100505.77;1720404;81;21047;-73
2021/09/04 11:05:48;;;;;;;2.13;0.80;;;;;;;16.82;39.47;100509.77;1738427;79;21040;-72
2021/09/04 11:08:27;;;;;;;1.60;0.80;;;;;;;16.71;39.97;100512.92;1790335;78;20994;-72
2021/09/04 11:11:15;;;;;;;2.10;0.90;;;;;;;16.56;40.52;100508.08;1791344;78;21038;-72
2021/09/04 11:13:50;;;;;;;2.50;0.93;;;;;;;16.46;40.17;100507.47;1779323;78;21085;-72
2021/09/04 11:16:41;;;;;;;3.10;0.90;;;;;;;16.47;40.19;100499.06;1830525;77;21046;-72
2021/09/04 11:19:28;;;;;;;2.07;1.00;;;;;;;16.60;41.25;100499.63;1838078;76;21543;-71
2021/09/04 11:22:10;;;;;;;3.10;1.00;;;;;;;16.83;40.88;100499.78;1825663;76;21030;-72
2021/09/04 11:24:41;;;;;;;3.70;1.00;;;;;;;17.10;41.29;100489.51;1829351;77;21021;-71
2021/09/04 11:27:12;;;;;;;2.97;1.20;;;;;;;17.42;40.78;100490.45;1810962;77;21168;-73
2021/09/04 11:29:45;;;;;;;4.10;1.40;;;;;;;17.69;40.20;100489.56;1836281;76;21104;-70
2021/09/04 11:32:14;;;;;;;2.20;1.03;;;;;;;17.85;39.38;100487.33;1816740;77;21047;-78
2021/09/04 11:34:49;;;;;;;3.47;1.10;;;;;;;18.02;38.24;100504.45;1834624;77;21058;-77
2021/09/04 11:37:26;;;;;;;1.80;0.90;;;;;;;18.04;37.31;100490.64;1838946;77;21711;-75
2021/09/04 11:39:57;;;;;;;3.53;1.00;;;;;;;17.92;37.74;100503.35;1840361;76;21121;-74
2021/09/04 11:42:27;;;;;;;2.58;1.30;;;;;;;17.84;38.08;100508.71;1836507;76;21030;-75
2021/09/04 11:45:08;;;;;;;2.37;1.10;;;;;;;17.75;38.02;100508.05;1829599;76;20989;-74